Burwash Airport
CYDB : now visible

Airfield :











YOU CAN JOIN US ON...

 
LOGIN :

Register | Disclaimer

   EN    FR    IT 

 









Legend :    VFR   Marginal VFR   IFR   Intensive IFR   Very Intensive IFR
Visi :
Ceiling :
>= 8 km
>= 3000ft
5 to 8 km
1000 to 3000 ft
1500m to 5 km
500 to 1000 ft
800 to 1500m
200 to 500 ft
< 800m
< 200 ft
Symbols :   Thunderstorms  Fog  Heavy snow  Heavy precipitations  Wind > 20 kt






- Airport Elevation : 2647 ft
- IATA code : YDB


CYDB - Burwash

CURRENT METAR :
  • 131600Z 12013G21KT 15SM SCT100 BKN140 BKN260 12/03 A2983 RMK AC3AC2CI1 SLP120 DENSITY ALT 3000FT

EXPIRED METARs :
  • 131500Z 12010G23KT 15SM SCT090 SCT130 SCT260 11/02 A2984 RMK AC3AC1CI1 CI TR SLP124 DENSITY ALT 2900FT
  • 131400Z 14009KT 15SM SCT110 SCT160 BKN260 09/02 A2986 RMK AC3AC1CI1 SLP130
  • 131300Z 14009G15KT 15SM SCT110 BKN160 BKN260 08/02 A2986 RMK AC4AC2CI1 CI TR SLP129
  • 131200Z AUTO 14010G20KT 9SM CLR 08/01 A2986 RMK SLP130

TAF TAF CYDB
Valid from the 13 at 12:00 until the 14 at 00:00 UTC


131140Z 1312/1324 12010G20KT P6SM SCT150
BECMG 1318/1320 12020G30KT RMK FCST BASED ON AUTO OBS. NXT FCST BY 131800Z
CZEG FIR / North America



MET'MAP, your aeronautical weather chart ! - Copyright ORBIFLY December 2007 - Disclaimer

ORBIFLY MET'MAP TEAM :

Programming & Development : Alexandra Zaïnal
Original concept : Baudouin d'Aumeries
Technical & hardware support : Manuel Goepfert
Assistance : Marc-Olivier Méhu




SOURCES & CREDITS :

   NOAA       Earth
Advisory